Aviation Digital Data Service (ADDS)

Output produced by METARs form (1519 UTC 28 July 2015)
found at http://aviationweather.gov/adds/metars/
 
KLFT 281453Z 32004KT 10SM BKN024 BKN036 31/23 A3003 RMK AO2 SLP169 T03110228 51012